< < Back
Terminal Aerodrome Forecast


Current Version              Previous Versions:   1  2  3  4  5  6  7  8  9  

Terminal Aerodrome Forecast

869
FTUS42 KMLB 310523
TAFDAB
TAF
KDAB 310523Z 3106/0106 19006KT P6SM VCSH FEW007 BKN045
     FM311400 21011KT P6SM VCSH SCT025 OVC100
     FM311700 22011G18KT P6SM VCSH SCT030 OVC060
     FM010000 20008KT P6SM VCSH FEW010 SCT040 BKN100=

Latest METAR

518
SAUS80 KWBC 310600
MTRDAB
METAR KDAB 310553Z 19006KT 10SM FEW007 BKN013 OVC029 24/23 A2992 RMK AO2
SLP132 T02440233 10256 20244 56005


USA.gov is the U.S. government's official web portal to all federal, state and local government web resources and services.